createdAt,value
2023-04-21T00:01:59.446Z,99137.36
2023-04-21T00:04:29.148Z,99137.80
2023-04-21T00:06:57.599Z,99134.48
2023-04-21T00:09:26.208Z,99137.33
2023-04-21T00:11:55.102Z,99136.05
2023-04-21T00:14:23.428Z,99132.62
2023-04-21T00:16:52.904Z,99128.26
2023-04-21T00:19:21.357Z,99126.56
2023-04-21T00:21:49.778Z,99127.17
2023-04-21T00:24:18.212Z,99127.20
2023-04-21T00:26:46.408Z,99128.27
2023-04-21T00:29:14.714Z,99126.45
2023-04-21T00:31:43.113Z,99129.79
2023-04-21T00:34:11.747Z,99129.14
2023-04-21T00:36:39.996Z,99121.64
2023-04-21T00:39:08.318Z,99122.46
2023-04-21T00:41:37.240Z,99120.80
2023-04-21T00:44:06.766Z,99122.80
2023-04-21T00:46:35.505Z,99123.39
2023-04-21T00:49:06.916Z,99124.83
2023-04-21T00:51:36.137Z,99126.05
2023-04-21T00:54:05.539Z,99123.65
2023-04-21T00:56:35.597Z,99120.67
2023-04-21T00:59:04.400Z,99121.77
2023-04-21T01:01:34.518Z,99115.92
2023-04-21T01:04:04.208Z,99117.17
2023-04-21T01:06:33.227Z,99115.95
2023-04-21T01:09:01.597Z,99120.00
2023-04-21T01:11:30.102Z,99116.11
2023-04-21T01:13:58.888Z,99116.81
2023-04-21T01:16:27.165Z,99118.19
2023-04-21T01:18:55.478Z,99119.99
2023-04-21T01:21:23.913Z,99120.91
2023-04-21T01:23:52.231Z,99115.66
2023-04-21T01:26:21.825Z,99112.68
2023-04-21T01:28:50.119Z,99112.13
2023-04-21T01:31:18.736Z,99107.77
2023-04-21T01:33:46.987Z,99112.65
2023-04-21T01:36:15.243Z,99109.48
2023-04-21T01:38:43.850Z,99106.19
2023-04-21T01:41:12.391Z,99105.72
2023-04-21T01:43:40.563Z,99102.49
2023-04-21T01:46:09.223Z,99101.47
2023-04-21T01:48:39.372Z,99100.94
2023-04-21T01:51:07.960Z,99100.16
2023-04-21T01:53:36.419Z,99101.48
2023-04-21T01:56:05.102Z,99099.13
2023-04-21T01:58:33.697Z,99100.27
2023-04-21T02:01:02.234Z,99096.73
2023-04-21T02:03:31.402Z,99093.48
2023-04-21T02:05:59.758Z,99090.56
2023-04-21T02:08:28.026Z,99090.66
2023-04-21T02:10:56.524Z,99085.44
2023-04-21T02:13:24.900Z,99075.10
2023-04-21T02:16:02.440Z,99078.56
2023-04-21T02:18:40.209Z,99078.98
2023-04-21T02:21:08.499Z,99077.55
2023-04-21T02:23:36.739Z,99076.49
2023-04-21T02:26:05.686Z,99073.41
2023-04-21T02:28:34.012Z,99074.20
2023-04-21T02:31:02.522Z,99072.77
2023-04-21T02:33:31.873Z,99074.24
2023-04-21T02:36:00.156Z,99074.60
2023-04-21T02:38:29.026Z,99079.73
2023-04-21T02:40:57.966Z,99075.84
2023-04-21T02:43:26.982Z,99077.34
2023-04-21T02:45:56.899Z,99076.81
2023-04-21T02:48:25.711Z,99074.59
2023-04-21T02:50:54.805Z,99075.58
2023-04-21T02:53:23.159Z,99075.02
2023-04-21T02:55:52.850Z,99066.11
2023-04-21T02:58:21.255Z,99066.89
2023-04-21T03:00:49.539Z,99063.91
2023-04-21T03:03:17.984Z,99061.35
2023-04-21T03:05:46.655Z,99059.69
2023-04-21T03:08:14.903Z,99061.38
2023-04-21T03:10:43.414Z,99058.94
2023-04-21T03:13:11.612Z,99060.51
2023-04-21T03:15:41.129Z,99058.61
2023-04-21T03:18:09.555Z,99060.17
2023-04-21T03:20:37.920Z,99062.65
2023-04-21T03:23:06.271Z,99060.55
2023-04-21T03:25:35.109Z,99065.23
2023-04-21T03:28:03.978Z,99066.45
2023-04-21T03:30:33.151Z,99067.13
2023-04-21T03:33:01.399Z,99066.73
2023-04-21T03:35:30.949Z,99069.63
2023-04-21T03:38:01.268Z,99068.48
2023-04-21T03:40:32.006Z,99065.54
2023-04-21T03:43:00.825Z,99067.05
2023-04-21T03:45:29.037Z,99066.48
2023-04-21T03:48:00.619Z,99065.17
2023-04-21T03:50:29.325Z,99062.88
2023-04-21T03:52:57.904Z,99062.75
2023-04-21T03:55:26.538Z,99057.61
2023-04-21T03:57:54.730Z,99055.80
2023-04-21T04:00:22.969Z,99053.69
2023-04-21T04:02:51.407Z,99052.89
2023-04-21T04:05:20.162Z,99052.80
2023-04-21T04:07:48.528Z,99050.99
2023-04-21T04:10:16.929Z,99046.36
2023-04-21T04:12:45.215Z,99044.71
2023-04-21T04:15:13.537Z,99046.52
2023-04-21T04:17:42.260Z,99046.12
2023-04-21T04:20:10.743Z,99042.54
2023-04-21T04:22:39.425Z,99046.94
2023-04-21T04:25:08.002Z,99045.59
2023-04-21T04:27:37.101Z,99044.52
2023-04-21T04:30:06.024Z,99048.83
2023-04-21T04:32:34.933Z,99054.38
2023-04-21T04:35:03.243Z,99053.55
2023-04-21T04:37:32.041Z,99051.69
2023-04-21T04:40:00.736Z,99051.11
2023-04-21T04:42:29.179Z,99055.21
2023-04-21T04:44:57.647Z,99058.38
2023-04-21T04:47:25.995Z,99058.71
2023-04-21T04:49:54.297Z,99060.10
2023-04-21T04:52:22.610Z,99059.48
2023-04-21T04:54:50.949Z,99061.75
2023-04-21T04:57:19.409Z,99058.69
2023-04-21T04:59:47.983Z,99063.72
2023-04-21T05:02:16.674Z,99061.83
2023-04-21T05:04:45.218Z,99063.86
2023-04-21T05:07:13.691Z,99062.30
2023-04-21T05:09:42.376Z,99063.45
2023-04-21T05:12:10.804Z,99065.12
2023-04-21T05:14:39.336Z,99064.24
2023-04-21T05:17:07.703Z,99065.22
2023-04-21T05:19:37.597Z,99064.73
2023-04-21T05:22:08.550Z,99068.95
2023-04-21T05:24:37.911Z,99068.01
2023-04-21T05:27:06.159Z,99067.60
2023-04-21T05:29:34.704Z,99071.27
2023-04-21T05:32:03.383Z,99063.04
2023-04-21T05:34:31.941Z,99068.64
2023-04-21T05:37:00.189Z,99069.61
2023-04-21T05:39:28.858Z,99067.73
2023-04-21T05:41:57.127Z,99064.16
2023-04-21T05:44:25.807Z,99067.09
2023-04-21T05:46:54.230Z,99059.59
2023-04-21T05:49:22.491Z,99063.73
2023-04-21T05:51:50.740Z,99065.32
2023-04-21T05:54:19.904Z,99064.95
2023-04-21T05:56:48.769Z,99066.65
2023-04-21T05:59:17.490Z,99069.77
2023-04-21T06:01:46.023Z,99064.89
2023-04-21T06:04:14.791Z,99064.98
2023-04-21T06:06:44.550Z,99068.55
2023-04-21T06:09:15.858Z,99065.44
2023-04-21T06:11:44.188Z,99067.47
2023-04-21T06:14:12.460Z,99064.48
2023-04-21T06:16:40.923Z,99065.64
2023-04-21T06:19:09.630Z,99065.69
2023-04-21T06:21:38.296Z,99063.65
2023-04-21T06:24:07.261Z,99061.95
2023-04-21T06:26:36.116Z,99062.02
2023-04-21T06:29:04.439Z,99063.17
2023-04-21T06:31:32.664Z,99062.81
2023-04-21T06:34:01.059Z,99064.70
2023-04-21T06:36:30.198Z,99061.90
2023-04-21T06:38:58.655Z,99059.73
2023-04-21T06:41:27.159Z,99058.38
2023-04-21T06:43:55.566Z,99056.31
2023-04-21T06:46:24.049Z,99058.31
2023-04-21T06:48:52.554Z,99056.26
2023-04-21T06:51:20.895Z,99054.48
2023-04-21T06:53:49.178Z,99056.64
2023-04-21T06:56:17.413Z,99056.34
2023-04-21T06:58:47.283Z,99056.62
2023-04-21T07:01:15.929Z,99060.52
2023-04-21T07:03:44.335Z,99057.34
2023-04-21T07:06:13.044Z,99053.31
2023-04-21T07:08:41.868Z,99044.67
2023-04-21T07:11:10.118Z,99047.73
2023-04-21T07:13:38.802Z,99051.41
2023-04-21T07:16:07.202Z,99053.27
2023-04-21T07:18:36.259Z,99050.38
2023-04-21T07:21:04.702Z,99055.21
2023-04-21T07:23:33.822Z,99047.95
2023-04-21T07:26:02.296Z,99047.04
2023-04-21T07:28:30.678Z,99052.55
2023-04-21T07:31:00.937Z,99060.10
2023-04-21T07:33:30.972Z,99057.20
2023-04-21T07:35:59.352Z,99058.58
2023-04-21T07:38:28.542Z,99062.80
2023-04-21T07:40:56.913Z,99067.08
2023-04-21T07:43:26.978Z,99061.45
2023-04-21T07:45:55.205Z,99062.02
2023-04-21T07:48:23.632Z,99057.46
2023-04-21T07:50:53.487Z,99062.29
2023-04-21T07:53:21.733Z,99064.95
2023-04-21T07:55:49.977Z,99063.63
2023-04-21T07:58:18.393Z,99061.52
2023-04-21T08:00:46.645Z,99060.80
2023-04-21T08:03:15.381Z,99059.73
2023-04-21T08:05:43.997Z,99059.79
2023-04-21T08:08:12.525Z,99065.79
2023-04-21T08:10:41.177Z,99061.86
2023-04-21T08:13:10.781Z,99064.98
2023-04-21T08:15:39.743Z,99061.91
2023-04-21T08:18:08.829Z,99060.17
2023-04-21T08:20:37.231Z,99062.46
2023-04-21T08:23:05.829Z,99063.30
2023-04-21T08:25:34.557Z,99067.34
2023-04-21T08:28:03.576Z,99068.53
2023-04-21T08:30:32.047Z,99068.61
2023-04-21T08:33:00.418Z,99072.97
2023-04-21T08:37:19.986Z,99075.90
2023-04-21T08:39:51.034Z,99074.69
2023-04-21T08:42:19.654Z,99076.41
2023-04-21T08:44:48.157Z,99076.69
2023-04-21T08:47:16.584Z,99079.36
2023-04-21T08:49:45.538Z,99078.56
2023-04-21T08:52:14.833Z,99079.44
2023-04-21T08:54:43.144Z,99083.64
2023-04-21T08:57:15.968Z,99080.66
2023-04-21T08:59:45.615Z,99080.77
2023-04-21T09:02:18.108Z,99073.77
2023-04-21T09:04:48.960Z,99076.02
2023-04-21T09:07:37.069Z,99078.16
2023-04-21T09:10:06.216Z,99077.40
2023-04-21T09:12:34.734Z,99078.56
2023-04-21T09:15:10.711Z,99076.25
2023-04-21T09:17:39.250Z,99078.68
2023-04-21T09:20:17.473Z,99077.23
2023-04-21T09:22:47.307Z,99080.55
2023-04-21T09:25:16.814Z,99081.62
2023-04-21T09:27:46.207Z,99081.40
2023-04-21T09:30:18.548Z,99083.10
2023-04-21T09:32:46.969Z,99087.58
2023-04-21T09:35:15.281Z,99086.05
2023-04-21T09:37:44.636Z,99085.73
2023-04-21T09:40:18.566Z,99094.53
2023-04-21T09:42:50.600Z,99095.16
2023-04-21T09:47:56.076Z,99103.93
2023-04-21T09:50:54.242Z,99103.63
2023-04-21T09:53:15.494Z,99111.55
2023-04-21T09:55:43.824Z,99112.83
2023-04-21T09:58:12.179Z,99111.45
2023-04-21T10:00:41.222Z,99109.81
2023-04-21T10:03:12.376Z,99107.98
2023-04-21T10:05:42.816Z,99113.85
2023-04-21T10:08:12.264Z,99107.44
2023-04-21T10:10:41.003Z,99109.71
2023-04-21T10:13:14.783Z,99110.72
2023-04-21T10:15:43.716Z,99107.59
2023-04-21T10:18:19.885Z,99111.99
2023-04-21T10:21:10.750Z,99116.13
2023-04-21T10:23:46.673Z,99120.39
2023-04-21T10:26:21.035Z,99127.82
2023-04-21T10:28:55.181Z,99133.30
2023-04-21T10:31:39.693Z,99131.52
2023-04-21T10:34:13.823Z,99144.05
2023-04-21T10:36:45.396Z,99145.98
2023-04-21T10:39:29.418Z,99151.61
2023-04-21T10:42:21.145Z,99150.36
2023-04-21T10:44:58.608Z,99144.88
2023-04-21T10:47:28.166Z,99151.59
2023-04-21T10:49:58.183Z,99151.66
2023-04-21T10:52:36.141Z,99140.81
2023-04-21T10:55:10.802Z,99133.94
2023-04-21T10:57:44.537Z,99127.31
2023-04-21T11:00:17.695Z,99128.25
2023-04-21T11:02:54.242Z,99129.05
2023-04-21T11:05:38.780Z,99130.04
2023-04-21T11:08:15.316Z,99135.98
2023-04-21T11:10:55.290Z,99139.42
2023-04-21T11:13:26.024Z,99138.26
2023-04-21T11:16:07.576Z,99141.23
2023-04-21T11:18:40.694Z,99148.51
2023-04-21T11:21:20.294Z,99147.13
2023-04-21T11:24:00.508Z,99146.62
2023-04-21T11:26:42.824Z,99145.48
2023-04-21T11:29:12.058Z,99143.13
2023-04-21T11:31:43.190Z,99145.47
2023-04-21T11:34:11.664Z,99135.97
2023-04-21T11:36:41.532Z,99123.91
2023-04-21T11:39:11.555Z,99119.38
2023-04-21T11:41:41.929Z,99114.70
2023-04-21T11:44:13.553Z,99116.42
2023-04-21T11:46:46.806Z,99110.95
2023-04-21T11:49:15.951Z,99110.17
2023-04-21T11:51:47.675Z,99111.70
2023-04-21T11:54:17.995Z,99107.67
2023-04-21T11:56:47.207Z,99114.32
2023-04-21T11:59:26.220Z,99107.86
2023-04-21T12:01:54.759Z,99101.95
2023-04-21T12:04:24.216Z,99104.65
2023-04-21T12:07:00.760Z,99104.95
2023-04-21T12:09:29.813Z,99102.94
2023-04-21T12:11:59.067Z,99097.20
2023-04-21T12:14:27.590Z,99091.63
2023-04-21T12:16:58.319Z,99092.64
2023-04-21T12:19:41.067Z,99087.14
2023-04-21T12:22:10.286Z,99085.45
2023-04-21T12:24:38.812Z,99081.05
2023-04-21T12:27:07.576Z,99077.92
2023-04-21T12:29:37.623Z,99078.66
2023-04-21T12:32:06.644Z,99076.16
2023-04-21T12:34:35.749Z,99076.17
2023-04-21T12:37:04.338Z,99074.42
2023-04-21T12:39:33.508Z,99070.23
2023-04-21T12:42:02.287Z,99067.91
2023-04-21T12:44:30.899Z,99064.31
2023-04-21T12:46:59.102Z,99065.87
2023-04-21T12:49:28.171Z,99062.05
2023-04-21T12:51:57.326Z,99056.49
2023-04-21T12:54:25.605Z,99061.13
2023-04-21T12:56:54.288Z,99060.22
2023-04-21T12:59:22.672Z,99062.14
2023-04-21T13:01:51.245Z,99064.72
2023-04-21T13:04:19.988Z,99063.51
2023-04-21T13:06:48.629Z,99063.09
2023-04-21T13:09:17.284Z,99071.30
2023-04-21T13:11:45.936Z,99067.98
2023-04-21T13:14:16.064Z,99063.38
2023-04-21T13:16:44.536Z,99066.30
2023-04-21T13:19:13.173Z,99064.48
2023-04-21T13:21:41.705Z,99061.09
2023-04-21T13:24:11.308Z,99061.29
2023-04-21T13:26:42.661Z,99065.70
2023-04-21T13:29:11.461Z,99061.30
2023-04-21T13:31:39.873Z,99058.36
2023-04-21T13:34:08.240Z,99061.86
2023-04-21T13:36:36.504Z,99058.90
2023-04-21T13:39:05.881Z,99059.45
2023-04-21T13:41:35.759Z,99055.74
2023-04-21T13:44:04.255Z,99053.05
2023-04-21T13:46:32.674Z,99047.86
2023-04-21T13:49:01.325Z,99043.98
2023-04-21T13:51:30.464Z,99045.58
2023-04-21T13:53:59.084Z,99042.94
2023-04-21T13:56:27.487Z,99049.45
2023-04-21T13:58:56.092Z,99050.33
2023-04-21T14:01:24.318Z,99044.36
2023-04-21T14:03:54.252Z,99041.66
2023-04-21T14:06:23.090Z,99036.11
2023-04-21T14:08:51.541Z,99038.65
2023-04-21T14:11:20.156Z,99042.48
2023-04-21T14:14:07.419Z,99043.14
2023-04-21T14:16:37.617Z,99045.44
2023-04-21T14:19:06.384Z,99041.73
2023-04-21T14:21:35.013Z,99035.59
2023-04-21T14:24:04.079Z,99041.30
2023-04-21T14:26:32.668Z,99042.05
2023-04-21T14:29:01.796Z,99048.04
2023-04-21T14:31:30.572Z,99049.58
2023-04-21T14:33:58.879Z,99046.83
2023-04-21T14:36:28.144Z,99046.64
2023-04-21T14:38:56.562Z,99046.09
2023-04-21T14:41:25.316Z,99043.61
2023-04-21T14:43:56.160Z,99044.44
2023-04-21T14:46:24.883Z,99042.77
2023-04-21T14:48:53.682Z,99041.92
2023-04-21T14:51:22.044Z,99040.41
2023-04-21T14:53:50.670Z,99036.07
2023-04-21T14:56:19.754Z,99035.64
2023-04-21T14:58:48.177Z,99030.62
2023-04-21T15:01:16.523Z,99028.48
2023-04-21T15:03:45.022Z,99026.30
2023-04-21T15:06:13.568Z,99027.76
2023-04-21T15:08:42.071Z,99033.43
2023-04-21T15:11:10.388Z,99039.79
2023-04-21T15:13:38.746Z,99039.00
2023-04-21T15:16:07.775Z,99033.63
2023-04-21T15:18:37.301Z,99036.59
2023-04-21T15:21:05.959Z,99037.81
2023-04-21T15:23:36.056Z,99028.79
2023-04-21T15:26:04.947Z,99021.83
2023-04-21T15:28:33.589Z,99030.16
2023-04-21T15:31:02.953Z,99032.04
2023-04-21T15:33:31.705Z,99030.70
2023-04-21T15:35:59.827Z,99034.42
2023-04-21T15:38:28.135Z,99037.80
2023-04-21T15:41:01.153Z,99047.89
2023-04-21T15:43:33.317Z,99054.04
2023-04-21T15:46:01.592Z,99053.55
2023-04-21T15:48:29.988Z,99058.54
2023-04-21T15:50:58.465Z,99054.03
2023-04-21T15:53:26.790Z,99047.05
2023-04-21T15:55:55.257Z,99050.52
2023-04-21T15:58:23.575Z,99051.95
2023-04-21T16:00:52.487Z,99053.36
2023-04-21T16:03:21.791Z,99051.65
2023-04-21T16:05:50.987Z,99049.52
2023-04-21T16:08:19.624Z,99058.63
2023-04-21T16:10:47.835Z,99067.03
2023-04-21T16:13:16.168Z,99071.58
2023-04-21T16:15:44.711Z,99078.30
2023-04-21T16:18:13.014Z,99076.49
2023-04-21T16:20:42.953Z,99034.73
2023-04-21T16:23:11.536Z,99012.80
2023-04-21T16:25:39.871Z,99007.90
2023-04-21T16:28:09.963Z,99008.45
2023-04-21T16:30:43.799Z,99004.21
2023-04-21T16:33:13.469Z,99012.95
2023-04-21T16:35:41.976Z,99025.83
2023-04-21T16:38:10.369Z,99031.73
2023-04-21T16:40:38.840Z,99027.55
2023-04-21T16:43:07.182Z,99027.67
2023-04-21T16:45:36.646Z,99026.98
2023-04-21T16:48:05.215Z,99026.41
2023-04-21T16:50:34.288Z,99020.27
2023-04-21T16:53:02.605Z,99023.69
2023-04-21T16:55:31.783Z,99024.70
2023-04-21T16:58:00.144Z,99022.12
2023-04-21T17:00:30.425Z,99035.20
2023-04-21T17:02:59.104Z,99039.23
2023-04-21T17:05:27.710Z,99035.10
2023-04-21T17:07:56.302Z,99040.34
2023-04-21T17:10:27.286Z,99044.57
2023-04-21T17:12:55.649Z,99047.21
2023-04-21T17:15:23.864Z,99046.33
2023-04-21T17:17:52.378Z,99049.35
2023-04-21T17:20:20.786Z,99057.02
2023-04-21T17:22:50.598Z,99061.77
2023-04-21T17:25:19.336Z,99067.46
2023-04-21T17:27:47.549Z,99067.96
2023-04-21T17:30:16.336Z,99072.44
2023-04-21T17:32:45.808Z,99072.30
2023-04-21T17:35:14.248Z,99077.47
2023-04-21T17:37:42.808Z,99079.02
2023-04-21T17:40:11.499Z,99090.13
2023-04-21T17:42:40.640Z,99096.48
2023-04-21T17:45:09.508Z,99094.72
2023-04-21T17:47:38.864Z,99090.93
2023-04-21T17:50:09.966Z,99090.76
2023-04-21T17:52:39.366Z,99092.17
2023-04-21T17:55:08.095Z,99093.15
2023-04-21T17:57:36.818Z,99094.28
2023-04-21T18:00:08.162Z,99094.95
2023-04-21T18:02:37.952Z,99093.91
2023-04-21T18:05:07.029Z,99094.49
2023-04-21T18:07:35.594Z,99092.05
2023-04-21T18:10:04.100Z,99095.77
2023-04-21T18:12:32.871Z,99094.45
2023-04-21T18:15:01.755Z,99096.76
2023-04-21T18:17:30.336Z,99096.05
2023-04-21T18:19:58.725Z,99096.03
2023-04-21T18:22:26.988Z,99097.23
2023-04-21T18:24:55.619Z,99092.21
2023-04-21T18:27:24.124Z,99091.73
2023-04-21T18:29:52.508Z,99084.80
2023-04-21T18:32:21.133Z,99077.94
2023-04-21T18:34:49.449Z,99083.11
2023-04-21T18:37:18.140Z,99077.44
2023-04-21T18:39:46.595Z,99072.95
2023-04-21T18:42:15.203Z,99066.65
2023-04-21T18:44:43.534Z,99064.54
2023-04-21T18:47:12.322Z,99056.98
2023-04-21T18:49:42.287Z,99052.41
2023-04-21T18:52:10.519Z,99047.98
2023-04-21T18:54:39.019Z,99049.88
2023-04-21T18:57:08.489Z,99045.17
2023-04-21T18:59:37.073Z,99042.18
2023-04-21T19:02:06.160Z,99043.95
2023-04-21T19:04:35.502Z,99043.11
2023-04-21T19:07:03.981Z,99043.14
2023-04-21T19:09:32.643Z,99039.70
2023-04-21T19:12:01.647Z,99037.80
2023-04-21T19:14:39.597Z,99034.39
2023-04-21T19:17:14.199Z,99033.30
2023-04-21T19:19:42.758Z,99036.67
2023-04-21T19:22:11.055Z,99035.36
2023-04-21T19:24:39.942Z,99034.93
2023-04-21T19:27:08.622Z,99038.77
2023-04-21T19:29:37.208Z,99035.95
2023-04-21T19:32:05.856Z,99040.61
2023-04-21T19:34:34.571Z,99039.36
2023-04-21T19:37:03.549Z,99036.66
2023-04-21T19:39:32.674Z,99029.44
2023-04-21T19:42:01.291Z,99026.07
2023-04-21T19:44:30.154Z,99026.50
2023-04-21T19:46:58.635Z,99022.86
2023-04-21T19:49:27.353Z,99017.14
2023-04-21T19:51:56.280Z,99013.02
2023-04-21T19:54:24.498Z,99011.83
2023-04-21T19:56:53.134Z,99009.45
2023-04-21T19:59:21.752Z,99008.57
2023-04-21T20:01:50.217Z,99008.14
2023-04-21T20:04:18.683Z,99009.54
2023-04-21T20:06:47.072Z,99011.80
2023-04-21T20:09:16.217Z,99014.11
2023-04-21T20:11:45.249Z,99017.08
2023-04-21T20:14:13.960Z,99012.78
2023-04-21T20:16:44.116Z,99008.52
2023-04-21T20:19:17.733Z,99010.03
2023-04-21T20:21:46.852Z,99013.85
2023-04-21T20:24:15.654Z,99013.25
2023-04-21T20:26:43.999Z,99016.03
2023-04-21T20:29:12.208Z,99009.27
2023-04-21T20:31:40.400Z,99007.90
2023-04-21T20:34:08.933Z,99006.05
2023-04-21T20:36:37.786Z,99009.17
2023-04-21T20:39:06.802Z,99004.59
2023-04-21T20:41:35.106Z,99006.98
2023-04-21T20:44:04.056Z,99002.98
2023-04-21T20:46:32.497Z,99004.59
2023-04-21T20:49:01.330Z,98999.94
2023-04-21T20:53:43.237Z,99003.16
2023-04-21T20:56:11.619Z,98998.77
2023-04-21T20:58:39.855Z,98998.39
2023-04-21T21:01:08.474Z,98995.22
2023-04-21T21:03:37.363Z,98997.76
2023-04-21T21:06:06.039Z,98997.20
2023-04-21T21:08:34.835Z,98997.41
2023-04-21T21:11:03.335Z,98991.04
2023-04-21T21:13:32.076Z,98990.67
2023-04-21T21:16:00.484Z,98990.78
2023-04-21T21:18:29.323Z,98992.20
2023-04-21T21:20:57.680Z,98989.88
2023-04-21T21:23:26.393Z,98991.25
2023-04-21T21:25:54.647Z,98993.13
2023-04-21T21:28:23.223Z,98990.40
2023-04-21T21:30:51.638Z,98990.91
2023-04-21T21:33:20.020Z,98987.07
2023-04-21T21:35:48.328Z,98991.34
2023-04-21T21:38:16.501Z,98991.54
2023-04-21T21:40:44.907Z,98991.47
2023-04-21T21:43:13.262Z,98990.40
2023-04-21T21:45:41.518Z,98991.50
2023-04-21T21:48:09.867Z,98988.14
2023-04-21T21:50:38.569Z,98987.92
2023-04-21T21:53:07.402Z,98984.89
2023-04-21T21:55:35.831Z,98986.73
2023-04-21T21:58:04.266Z,98982.09
2023-04-21T22:00:32.502Z,98983.60
2023-04-21T22:03:00.808Z,98981.16
2023-04-21T22:05:29.485Z,98982.77
2023-04-21T22:07:58.385Z,98976.95
2023-04-21T22:10:27.226Z,98978.77
2023-04-21T22:12:55.974Z,98978.91
2023-04-21T22:15:24.188Z,98974.20
2023-04-21T22:17:52.760Z,98974.29
2023-04-21T22:20:22.254Z,98972.80
2023-04-21T22:22:50.924Z,98973.56
2023-04-21T22:25:19.508Z,98972.64
2023-04-21T22:27:47.737Z,98975.64
2023-04-21T22:30:15.985Z,98974.84
2023-04-21T22:32:44.719Z,98978.61
2023-04-21T22:35:13.002Z,98981.14
2023-04-21T22:37:41.920Z,98980.79
2023-04-21T22:40:10.281Z,98982.90
2023-04-21T22:42:38.788Z,98983.91
2023-04-21T22:45:07.908Z,98986.30
2023-04-21T22:47:36.225Z,98985.64
2023-04-21T22:50:05.012Z,98985.38
2023-04-21T22:52:33.359Z,98988.28
2023-04-21T22:55:01.893Z,98991.84
2023-04-21T22:57:30.504Z,98992.48
2023-04-21T22:59:58.937Z,98990.85
2023-04-21T23:02:27.485Z,98988.10
2023-04-21T23:04:56.089Z,98984.36
2023-04-21T23:07:24.420Z,98981.81
2023-04-21T23:09:52.754Z,98978.06
2023-04-21T23:12:21.023Z,98975.44
2023-04-21T23:14:49.202Z,98972.44
2023-04-21T23:17:17.606Z,98975.27
2023-04-21T23:19:46.141Z,98974.23
2023-04-21T23:22:14.933Z,98967.16
2023-04-21T23:24:43.266Z,98963.38
2023-04-21T23:27:11.748Z,98963.63
2023-04-21T23:29:40.637Z,98962.48
2023-04-21T23:32:09.660Z,98965.61
2023-04-21T23:34:38.300Z,98968.96
2023-04-21T23:37:06.529Z,98971.63
2023-04-21T23:39:34.928Z,98975.23
2023-04-21T23:42:04.605Z,98973.25
2023-04-21T23:44:33.225Z,98974.00
2023-04-21T23:47:01.711Z,98971.67
2023-04-21T23:49:30.249Z,98971.50
2023-04-21T23:51:58.832Z,98967.98
2023-04-21T23:54:27.057Z,98970.51
2023-04-21T23:56:55.988Z,98969.23
2023-04-21T23:59:24.256Z,98972.42
